Time;durP1;ratioP1;P1;durP2;ratioP2;P2;SDS_P1;SDS_P2;PMS_P1;PMS_P2;Temp;Humidity;BMP_temperature;BMP_pressure;BME280_temperature;BME280_humidity;BME280_pressure;Samples;Min_cycle;Max_cycle;Signal;HPM_P1;HPM_P2
2021/12/19 00:01:17;;;;;;;0.40;0.03;;;;;;;;;;5033213;28;20255;-67
2021/12/19 00:09:14;;;;;;;0.17;0.10;;;;;;;;;;4991543;28;20053;-66
2021/12/19 00:11:39;;;;;;;1.33;0.20;;;;;;;;;;4991080;28;20034;-66
2021/12/19 00:14:05;;;;;;;0.40;0.10;;;;;;;;;;4991365;28;20117;-66
2021/12/19 00:16:30;;;;;;;1.08;0.32;;;;;;;;;;4991211;28;20267;-66
2021/12/19 00:18:56;;;;;;;0.63;0.20;;;;;;;;;;4990844;28;20041;-66
2021/12/19 00:21:21;;;;;;;0.80;0.40;;;;;;;;;;4990909;28;20790;-66
2021/12/19 00:23:48;;;;;;;0.28;0.10;;;;;;;;;;4990857;28;20637;-66
2021/12/19 00:26:15;;;;;;;0.43;0.10;;;;;;;;;;4991034;28;20524;-66
2021/12/19 00:28:41;;;;;;;0.32;0.13;;;;;;;;;;4990733;28;20057;-66
2021/12/19 00:31:06;;;;;;;0.68;0.10;;;;;;;;;;4990714;28;20077;-66
2021/12/19 00:33:31;;;;;;;1.00;0.43;;;;;;;;;;4990880;28;20033;-67
2021/12/19 00:35:57;;;;;;;0.55;0.20;;;;;;;;;;4974543;28;20022;-66
2021/12/19 00:38:22;;;;;;;0.30;0.17;;;;;;;;;;4974607;28;20412;-67
2021/12/19 00:40:48;;;;;;;0.40;0.20;;;;;;;;;;4990619;28;20129;-66
2021/12/19 00:43:24;;;;;;;1.17;0.20;;;;;;;;;;5006503;28;20041;-66
2021/12/19 00:45:50;;;;;;;0.25;0.10;;;;;;;;;;5032786;28;20009;-66
2021/12/19 00:48:16;;;;;;;1.33;0.10;;;;;;;;;;5032488;28;20460;-66
2021/12/19 00:50:41;;;;;;;0.30;0.10;;;;;;;;;;5032256;28;20032;-66
2021/12/19 00:53:06;;;;;;;0.30;0.10;;;;;;;;;;5032101;28;20029;-66
2021/12/19 00:55:32;;;;;;;0.03;0.00;;;;;;;;;;5032309;28;20022;-67
2021/12/19 00:57:57;;;;;;;1.05;0.25;;;;;;;;;;5032117;28;20411;-67
2021/12/19 01:00:26;;;;;;;0.45;0.20;;;;;;;;;;5032372;28;20045;-66
2021/12/19 01:02:54;;;;;;;0.93;0.50;;;;;;;;;;5032217;28;20020;-66
2021/12/19 01:05:19;;;;;;;0.32;0.10;;;;;;;;;;5032371;28;20207;-66
2021/12/19 01:07:44;;;;;;;0.10;0.10;;;;;;;;;;5032191;28;20029;-67
2021/12/19 01:10:10;;;;;;;0.52;0.10;;;;;;;;;;5032291;28;20071;-67
2021/12/19 01:12:38;;;;;;;0.43;0.10;;;;;;;;;;5031995;28;20018;-67
2021/12/19 01:15:04;;;;;;;0.22;0.20;;;;;;;;;;5032222;28;20026;-66
2021/12/19 01:17:30;;;;;;;0.43;0.03;;;;;;;;;;5030877;28;20388;-66
2021/12/19 01:19:55;;;;;;;0.20;0.00;;;;;;;;;;5032097;28;20018;-66
2021/12/19 01:22:20;;;;;;;1.03;0.10;;;;;;;;;;5030749;28;20176;-66
2021/12/19 01:24:45;;;;;;;0.65;0.10;;;;;;;;;;5031847;28;20243;-66
2021/12/19 01:27:11;;;;;;;0.35;0.10;;;;;;;;;;5032078;28;20029;-67
2021/12/19 01:29:36;;;;;;;1.37;0.10;;;;;;;;;;5031936;28;20049;-68
2021/12/19 01:32:01;;;;;;;0.13;0.13;;;;;;;;;;5032034;28;20257;-67
2021/12/19 01:34:26;;;;;;;0.40;0.10;;;;;;;;;;5031951;28;20242;-67
2021/12/19 01:36:52;;;;;;;0.40;0.10;;;;;;;;;;5031871;28;20035;-66
2021/12/19 01:39:17;;;;;;;0.30;0.17;;;;;;;;;;5032216;28;20034;-66
2021/12/19 01:41:49;;;;;;;0.80;0.10;;;;;;;;;;5031876;28;20736;-66
2021/12/19 01:44:15;;;;;;;0.57;0.10;;;;;;;;;;5031959;28;20029;-66
2021/12/19 01:46:40;;;;;;;0.30;0.10;;;;;;;;;;5031677;28;20009;-66
2021/12/19 01:49:06;;;;;;;0.80;0.40;;;;;;;;;;5030614;28;20026;-66
2021/12/19 01:51:31;;;;;;;0.17;0.10;;;;;;;;;;5031853;28;20053;-66
2021/12/19 01:53:57;;;;;;;0.10;0.10;;;;;;;;;;5031918;28;20026;-66
2021/12/19 01:56:22;;;;;;;1.52;0.65;;;;;;;;;;5031832;28;20025;-66
2021/12/19 01:58:47;;;;;;;0.50;0.10;;;;;;;;;;5031536;28;20026;-66
2021/12/19 02:01:12;;;;;;;0.17;0.10;;;;;;;;;;5030493;28;20026;-66
2021/12/19 02:03:37;;;;;;;0.03;0.00;;;;;;;;;;5031794;28;20017;-66
2021/12/19 02:06:03;;;;;;;0.83;0.10;;;;;;;;;;5035821;28;20018;-66
2021/12/19 02:08:28;;;;;;;0.90;0.10;;;;;;;;;;5035645;28;20246;-66
2021/12/19 02:10:53;;;;;;;0.75;0.08;;;;;;;;;;5035189;28;20028;-66
2021/12/19 02:13:19;;;;;;;0.10;0.00;;;;;;;;;;5035456;28;20147;-67
2021/12/19 02:15:44;;;;;;;0.10;0.03;;;;;;;;;;5035125;28;20247;-66
2021/12/19 02:18:12;;;;;;;0.90;0.30;;;;;;;;;;5035519;28;20018;-68
2021/12/19 02:20:39;;;;;;;0.35;0.10;;;;;;;;;;5034824;28;20048;-66
2021/12/19 02:23:04;;;;;;;1.10;0.13;;;;;;;;;;5035131;28;20017;-67
2021/12/19 02:25:30;;;;;;;1.38;0.10;;;;;;;;;;5034982;28;20494;-67
2021/12/19 02:27:55;;;;;;;0.17;0.00;;;;;;;;;;5035355;28;20020;-66
2021/12/19 02:30:20;;;;;;;0.17;0.10;;;;;;;;;;5035111;28;20368;-67
2021/12/19 02:32:45;;;;;;;0.73;0.20;;;;;;;;;;5033409;28;20387;-66
2021/12/19 02:35:16;;;;;;;0.52;0.20;;;;;;;;;;5034920;28;20405;-67
2021/12/19 02:48:19;;;;;;;0.52;0.00;;;;;;;;;;4993069;28;20041;-66
2021/12/19 02:50:50;;;;;;;0.63;0.10;;;;;;;;;;4976235;28;20409;-67
2021/12/19 02:53:23;;;;;;;0.50;0.10;;;;;;;;;;4976524;28;20260;-67
2021/12/19 02:55:48;;;;;;;0.20;0.00;;;;;;;;;;4992672;28;20052;-67
2021/12/19 02:58:13;;;;;;;0.13;0.10;;;;;;;;;;4992490;28;20022;-66
2021/12/19 03:00:39;;;;;;;0.35;0.00;;;;;;;;;;4992512;28;20030;-67
2021/12/19 03:03:04;;;;;;;0.17;0.10;;;;;;;;;;4992675;28;20557;-67
2021/12/19 03:05:32;;;;;;;0.35;0.15;;;;;;;;;;4992624;28;20521;-66
2021/12/19 03:07:57;;;;;;;0.13;0.10;;;;;;;;;;4992559;28;20473;-66
2021/12/19 03:18:28;;;;;;;0.88;0.13;;;;;;;;;;4992459;28;20037;-66
2021/12/19 03:20:54;;;;;;;0.75;0.13;;;;;;;;;;4991992;28;20046;-66
2021/12/19 03:23:19;;;;;;;1.45;0.22;;;;;;;;;;5024122;28;20037;-66
2021/12/19 03:25:44;;;;;;;0.22;0.10;;;;;;;;;;5033802;28;20292;-66
2021/12/19 03:28:10;;;;;;;2.57;0.17;;;;;;;;;;5033150;28;20021;-66
2021/12/19 03:30:36;;;;;;;0.68;0.22;;;;;;;;;;5032370;28;20274;-66
2021/12/19 03:33:02;;;;;;;1.13;0.20;;;;;;;;;;5033752;28;20025;-66
2021/12/19 03:35:29;;;;;;;0.20;0.00;;;;;;;;;;5032403;28;20513;-66
2021/12/19 03:37:54;;;;;;;1.00;0.30;;;;;;;;;;5032283;28;20435;-66
2021/12/19 03:40:34;;;;;;;0.15;0.05;;;;;;;;;;5033738;28;20026;-67
2021/12/19 03:42:59;;;;;;;0.43;0.20;;;;;;;;;;5033582;28;20013;-67
2021/12/19 03:45:25;;;;;;;0.40;0.00;;;;;;;;;;5033514;28;20044;-66
2021/12/19 03:47:50;;;;;;;0.13;0.13;;;;;;;;;;5033431;28;20013;-67
2021/12/19 03:50:19;;;;;;;0.20;0.00;;;;;;;;;;5033520;28;20021;-66
2021/12/19 03:52:45;;;;;;;0.10;0.00;;;;;;;;;;5033240;28;20024;-66
2021/12/19 03:55:10;;;;;;;0.20;0.00;;;;;;;;;;5033337;28;20353;-67
2021/12/19 03:57:35;;;;;;;0.57;0.20;;;;;;;;;;5033279;28;20475;-67
2021/12/19 04:00:01;;;;;;;0.20;0.03;;;;;;;;;;5032057;28;20024;-66
2021/12/19 04:02:27;;;;;;;1.00;0.10;;;;;;;;;;5033229;28;20025;-66
2021/12/19 04:04:56;;;;;;;0.10;0.03;;;;;;;;;;5032977;28;20033;-67
2021/12/19 04:07:22;;;;;;;0.15;0.00;;;;;;;;;;5033113;28;20100;-67
2021/12/19 04:09:48;;;;;;;1.98;0.28;;;;;;;;;;5033046;28;20113;-67
2021/12/19 04:12:13;;;;;;;0.45;0.05;;;;;;;;;;5033330;28;20452;-66
2021/12/19 04:14:38;;;;;;;0.10;0.10;;;;;;;;;;5031587;28;20106;-67
2021/12/19 04:17:04;;;;;;;0.57;0.10;;;;;;;;;;5032962;28;20028;-66
2021/12/19 04:19:29;;;;;;;0.60;0.20;;;;;;;;;;5032782;28;20320;-67
2021/12/19 04:21:55;;;;;;;0.45;0.10;;;;;;;;;;5032766;28;20079;-67
2021/12/19 04:24:20;;;;;;;0.20;0.10;;;;;;;;;;5032736;28;20460;-66
2021/12/19 04:26:45;;;;;;;0.43;0.30;;;;;;;;;;5032159;28;20025;-67
2021/12/19 04:29:11;;;;;;;0.32;0.10;;;;;;;;;;5032722;28;20084;-67
2021/12/19 04:31:36;;;;;;;0.47;0.20;;;;;;;;;;5031341;28;20108;-67
2021/12/19 04:34:02;;;;;;;0.32;0.10;;;;;;;;;;5032760;28;20045;-66
2021/12/19 04:36:32;;;;;;;1.15;0.17;;;;;;;;;;5032632;28;20087;-66
2021/12/19 04:57:31;;;;;;;0.20;0.03;;;;;;;;;;5032502;28;20025;-67
2021/12/19 05:00:18;;;;;;;0.57;0.10;;;;;;;;;;5032264;28;20578;-67
2021/12/19 05:02:55;;;;;;;0.00;0.00;;;;;;;;;;5032088;28;20018;-66
2021/12/19 05:05:50;;;;;;;0.40;0.10;;;;;;;;;;5032396;28;20041;-66
2021/12/19 05:14:32;;;;;;;0.77;0.20;;;;;;;;;;5010328;28;20436;-67
2021/12/19 05:16:48;;;;;;;1.38;0.47;;;;;;;;;;5005961;28;20168;-67
2021/12/19 05:21:49;;;;;;;0.10;0.03;;;;;;;;;;5009718;28;20038;-66
2021/12/19 05:24:22;;;;;;;0.60;0.10;;;;;;;;;;5004818;28;20069;-66
2021/12/19 05:26:47;;;;;;;0.55;0.15;;;;;;;;;;4990116;28;20030;-66
2021/12/19 05:29:13;;;;;;;0.10;0.08;;;;;;;;;;4990318;28;20069;-67
2021/12/19 05:31:38;;;;;;;1.85;0.10;;;;;;;;;;4990228;28;20351;-67
2021/12/19 05:34:03;;;;;;;1.50;0.30;;;;;;;;;;4990322;28;20030;-66
2021/12/19 05:47:05;;;;;;;0.08;0.08;;;;;;;;;;5020171;28;20072;-67
2021/12/19 05:49:30;;;;;;;0.73;0.17;;;;;;;;;;5035701;28;20021;-67
2021/12/19 05:51:57;;;;;;;0.28;0.20;;;;;;;;;;5035753;28;20021;-67
2021/12/19 05:54:22;;;;;;;0.20;0.10;;;;;;;;;;5035668;28;20017;-67
2021/12/19 05:56:48;;;;;;;0.47;0.10;;;;;;;;;;5034132;28;20379;-67
2021/12/19 05:59:13;;;;;;;1.00;0.10;;;;;;;;;;5034123;28;20772;-67
2021/12/19 06:01:39;;;;;;;1.65;0.10;;;;;;;;;;5035416;28;20032;-66
2021/12/19 06:04:04;;;;;;;0.75;0.10;;;;;;;;;;5035484;28;20388;-67
2021/12/19 06:06:29;;;;;;;0.35;0.15;;;;;;;;;;5035372;28;20018;-67
2021/12/19 06:08:54;;;;;;;0.30;0.10;;;;;;;;;;5035201;28;20488;-67
2021/12/19 06:11:19;;;;;;;0.30;0.30;;;;;;;;;;5035374;28;20242;-67
2021/12/19 06:13:44;;;;;;;0.40;0.10;;;;;;;;;;5033880;28;20741;-67
2021/12/19 06:16:10;;;;;;;0.40;0.10;;;;;;;;;;5035315;28;20269;-67
2021/12/19 06:18:35;;;;;;;0.63;0.07;;;;;;;;;;5035030;28;20100;-67
2021/12/19 06:21:00;;;;;;;0.75;0.20;;;;;;;;;;5033625;28;20286;-67
2021/12/19 06:23:25;;;;;;;0.55;0.15;;;;;;;;;;5035075;28;20021;-67
2021/12/19 06:25:50;;;;;;;0.53;0.10;;;;;;;;;;5035013;28;20029;-67
2021/12/19 06:28:16;;;;;;;0.10;0.10;;;;;;;;;;5035082;28;20350;-67
2021/12/19 06:30:42;;;;;;;0.10;0.00;;;;;;;;;;5034804;28;20022;-67
2021/12/19 06:33:08;;;;;;;1.00;0.10;;;;;;;;;;5034954;28;20021;-67
2021/12/19 06:35:33;;;;;;;0.08;0.00;;;;;;;;;;5034790;28;20029;-66
2021/12/19 06:37:58;;;;;;;0.68;0.10;;;;;;;;;;5034831;28;20075;-66
2021/12/19 06:40:24;;;;;;;0.50;0.08;;;;;;;;;;5034810;28;20045;-67
2021/12/19 06:42:49;;;;;;;1.08;0.13;;;;;;;;;;5034668;28;20045;-67
2021/12/19 06:45:15;;;;;;;0.43;0.08;;;;;;;;;;5034695;28;20022;-67
2021/12/19 06:47:40;;;;;;;0.30;0.10;;;;;;;;;;5034501;28;20021;-66
2021/12/19 06:50:06;;;;;;;0.75;0.10;;;;;;;;;;5034241;28;20017;-66
2021/12/19 06:52:31;;;;;;;0.20;0.00;;;;;;;;;;5034501;28;20025;-67
2021/12/19 06:54:56;;;;;;;0.10;0.10;;;;;;;;;;5034433;28;20026;-68
2021/12/19 06:57:22;;;;;;;0.10;0.00;;;;;;;;;;5034522;28;20563;-67
2021/12/19 06:59:47;;;;;;;0.60;0.20;;;;;;;;;;5033959;28;20465;-67
2021/12/19 07:02:14;;;;;;;0.30;0.00;;;;;;;;;;5034452;28;20049;-67
2021/12/19 07:04:39;;;;;;;0.20;0.10;;;;;;;;;;5032801;28;20017;-68
2021/12/19 07:07:05;;;;;;;0.40;0.10;;;;;;;;;;5034317;28;20574;-67
2021/12/19 07:09:30;;;;;;;0.07;0.00;;;;;;;;;;5034240;28;20030;-67
2021/12/19 07:11:55;;;;;;;0.10;0.10;;;;;;;;;;5034257;28;20381;-67
2021/12/19 07:14:20;;;;;;;0.93;0.03;;;;;;;;;;5032966;28;20021;-67
2021/12/19 07:16:45;;;;;;;0.45;0.10;;;;;;;;;;5033957;28;21006;-67
2021/12/19 07:19:10;;;;;;;1.03;0.20;;;;;;;;;;5033960;28;20032;-67
2021/12/19 07:21:36;;;;;;;0.38;0.10;;;;;;;;;;5033754;28;20099;-67
2021/12/19 07:24:01;;;;;;;0.10;0.10;;;;;;;;;;5033990;28;20010;-67
2021/12/19 07:26:26;;;;;;;0.20;0.10;;;;;;;;;;5033943;28;20021;-68
2021/12/19 07:28:51;;;;;;;1.47;0.10;;;;;;;;;;5033849;28;20060;-67
2021/12/19 07:31:17;;;;;;;0.45;0.10;;;;;;;;;;5033831;28;20387;-68
2021/12/19 07:33:44;;;;;;;1.10;0.20;;;;;;;;;;5032412;28;20076;-68
2021/12/19 07:36:09;;;;;;;0.52;0.10;;;;;;;;;;5033790;28;20027;-68
2021/12/19 07:38:47;;;;;;;0.30;0.10;;;;;;;;;;5033531;28;20029;-67
2021/12/19 07:41:12;;;;;;;0.20;0.10;;;;;;;;;;5033685;28;20286;-67
2021/12/19 07:43:37;;;;;;;0.60;0.25;;;;;;;;;;5033547;28;20045;-67
2021/12/19 07:46:02;;;;;;;0.13;0.10;;;;;;;;;;5033676;28;20026;-67
2021/12/19 07:48:27;;;;;;;0.60;0.17;;;;;;;;;;5033492;28;20419;-67
2021/12/19 07:50:54;;;;;;;0.80;0.10;;;;;;;;;;5033394;28;20255;-67
2021/12/19 07:53:19;;;;;;;0.10;0.10;;;;;;;;;;5033492;28;20033;-68
2021/12/19 07:55:44;;;;;;;0.20;0.10;;;;;;;;;;5033291;28;20022;-67
2021/12/19 07:58:09;;;;;;;0.15;0.00;;;;;;;;;;5033314;28;20029;-67
2021/12/19 08:00:35;;;;;;;0.30;0.10;;;;;;;;;;5033151;28;20022;-67
2021/12/19 08:03:00;;;;;;;0.45;0.10;;;;;;;;;;5032788;28;20024;-67
2021/12/19 08:05:25;;;;;;;0.45;0.22;;;;;;;;;;5033123;28;20024;-67
2021/12/19 08:07:55;;;;;;;0.40;0.13;;;;;;;;;;5033144;28;20025;-67
2021/12/19 08:12:46;;;;;;;0.47;0.10;;;;;;;;;;5032878;28;20033;-67
2021/12/19 08:15:12;;;;;;;0.70;0.20;;;;;;;;;;5032509;28;20381;-67
2021/12/19 08:17:37;;;;;;;0.68;0.10;;;;;;;;;;5032841;28;20338;-67
2021/12/19 08:20:04;;;;;;;0.68;0.10;;;;;;;;;;5032806;28;20096;-66
2021/12/19 08:22:31;;;;;;;0.20;0.00;;;;;;;;;;5031506;28;20120;-66
2021/12/19 08:24:57;;;;;;;0.35;0.13;;;;;;;;;;5031349;28;20018;-67
2021/12/19 08:27:22;;;;;;;0.60;0.08;;;;;;;;;;5032887;28;20009;-66
2021/12/19 08:29:48;;;;;;;0.35;0.10;;;;;;;;;;5032743;28;20488;-67
2021/12/19 08:32:13;;;;;;;0.60;0.20;;;;;;;;;;5032765;28;20030;-66
2021/12/19 08:34:38;;;;;;;0.57;0.20;;;;;;;;;;5032597;28;20017;-67
2021/12/19 08:37:04;;;;;;;0.60;0.20;;;;;;;;;;5031478;28;20258;-67
2021/12/19 08:39:31;;;;;;;0.30;0.10;;;;;;;;;;5032506;28;20427;-67
2021/12/19 08:41:56;;;;;;;1.15;0.13;;;;;;;;;;5032672;28;20025;-67
2021/12/19 08:44:21;;;;;;;0.10;0.00;;;;;;;;;;5032610;28;20022;-67
2021/12/19 08:46:47;;;;;;;0.50;0.20;;;;;;;;;;5032297;28;20755;-66
2021/12/19 08:49:12;;;;;;;0.70;0.10;;;;;;;;;;5032554;28;20025;-67
2021/12/19 08:51:39;;;;;;;0.55;0.20;;;;;;;;;;5032706;28;20028;-67
2021/12/19 08:54:04;;;;;;;0.82;0.20;;;;;;;;;;5032534;28;20379;-67
2021/12/19 08:56:30;;;;;;;0.20;0.10;;;;;;;;;;5032187;28;20515;-67
2021/12/19 08:58:55;;;;;;;0.57;0.10;;;;;;;;;;5032416;28;20262;-67
2021/12/19 09:01:21;;;;;;;1.23;0.10;;;;;;;;;;5031149;28;20063;-67
2021/12/19 09:03:46;;;;;;;1.05;0.20;;;;;;;;;;5032241;28;20029;-68
2021/12/19 09:06:11;;;;;;;0.43;0.10;;;;;;;;;;5031261;28;20100;-68
2021/12/19 09:08:36;;;;;;;0.20;0.20;;;;;;;;;;5032169;28;20096;-67
2021/12/19 09:11:01;;;;;;;0.20;0.10;;;;;;;;;;5032242;28;20301;-67
2021/12/19 09:13:27;;;;;;;0.67;0.13;;;;;;;;;;5034060;28;20250;-67
2021/12/19 09:15:52;;;;;;;0.20;0.20;;;;;;;;;;5036351;28;20295;-68
2021/12/19 09:18:18;;;;;;;0.00;0.00;;;;;;;;;;5036341;28;20053;-67
2021/12/19 09:20:43;;;;;;;0.70;0.10;;;;;;;;;;5036126;28;20304;-67
2021/12/19 09:23:09;;;;;;;0.20;0.10;;;;;;;;;;5036212;28;20022;-67
2021/12/19 09:25:35;;;;;;;0.47;0.20;;;;;;;;;;5036070;28;20610;-67
2021/12/19 09:28:00;;;;;;;0.20;0.10;;;;;;;;;;5036269;28;20033;-67
2021/12/19 09:30:26;;;;;;;0.43;0.10;;;;;;;;;;5035432;28;20013;-68
2021/12/19 09:32:51;;;;;;;0.30;0.08;;;;;;;;;;5035933;28;20013;-67
2021/12/19 09:35:16;;;;;;;0.38;0.03;;;;;;;;;;5036178;28;20056;-67
2021/12/19 09:37:42;;;;;;;0.23;0.07;;;;;;;;;;5035897;28;20061;-67
2021/12/19 09:40:09;;;;;;;0.50;0.10;;;;;;;;;;5036278;28;20278;-67
2021/12/19 09:42:36;;;;;;;0.65;0.20;;;;;;;;;;5035814;28;20021;-67
2021/12/19 09:45:03;;;;;;;1.33;0.28;;;;;;;;;;5035899;28;20021;-67
2021/12/19 09:47:28;;;;;;;0.00;0.00;;;;;;;;;;5035725;28;20043;-67
2021/12/19 09:49:53;;;;;;;0.20;0.00;;;;;;;;;;5035753;28;20072;-67
2021/12/19 09:52:19;;;;;;;0.28;0.10;;;;;;;;;;5035828;28;20384;-67
2021/12/19 09:54:44;;;;;;;0.43;0.10;;;;;;;;;;5035433;28;20028;-67
2021/12/19 09:57:09;;;;;;;0.30;0.10;;;;;;;;;;5035691;28;20093;-67
2021/12/19 09:59:34;;;;;;;0.75;0.25;;;;;;;;;;5035464;28;20606;-67
2021/12/19 10:02:00;;;;;;;0.10;0.00;;;;;;;;;;5035624;28;20044;-67
2021/12/19 10:04:33;;;;;;;0.20;0.10;;;;;;;;;;5034201;28;20018;-67
2021/12/19 10:07:07;;;;;;;0.10;0.10;;;;;;;;;;5034184;28;20090;-67
2021/12/19 10:09:32;;;;;;;0.13;0.00;;;;;;;;;;5034132;28;20021;-66
2021/12/19 10:12:23;;;;;;;1.40;0.17;;;;;;;;;;5035681;28;20423;-66
2021/12/19 10:14:49;;;;;;;0.90;0.30;;;;;;;;;;5033993;28;20416;-66
2021/12/19 10:17:17;;;;;;;0.50;0.17;;;;;;;;;;5035301;28;20025;-67
2021/12/19 10:19:47;;;;;;;0.25;0.10;;;;;;;;;;5033711;28;20270;-68
2021/12/19 10:22:32;;;;;;;0.20;0.03;;;;;;;;;;5033766;28;20057;-68
2021/12/19 10:25:09;;;;;;;0.68;0.05;;;;;;;;;;5034019;28;20100;-67
2021/12/19 10:27:36;;;;;;;0.88;0.13;;;;;;;;;;5034940;28;20464;-67
2021/12/19 10:30:02;;;;;;;0.40;0.30;;;;;;;;;;5035136;28;20029;-67
2021/12/19 10:32:27;;;;;;;0.35;0.10;;;;;;;;;;5034836;28;20096;-67
2021/12/19 10:35:11;;;;;;;0.93;0.13;;;;;;;;;;5034739;28;20037;-67
2021/12/19 10:37:36;;;;;;;;;;;;;;;;;;5033772;28;20734;-66
2021/12/19 10:40:02;;;;;;;0.57;0.00;;;;;;;;;;5034874;28;20248;-67
2021/12/19 10:42:34;;;;;;;0.10;0.03;;;;;;;;;;5033380;28;20096;-67
2021/12/19 10:47:42;;;;;;;1.00;0.10;;;;;;;;;;5034546;28;20025;-67
2021/12/19 10:50:08;;;;;;;0.40;0.00;;;;;;;;;;5034756;28;20026;-67
2021/12/19 10:52:38;;;;;;;0.45;0.20;;;;;;;;;;5034528;28;20614;-67
2021/12/19 10:55:04;;;;;;;0.50;0.30;;;;;;;;;;5034634;28;20114;-67
2021/12/19 10:57:32;;;;;;;0.30;0.10;;;;;;;;;;5034337;28;20032;-67
2021/12/19 10:59:57;;;;;;;1.05;0.03;;;;;;;;;;5034744;28;20045;-67
2021/12/19 11:02:42;;;;;;;0.22;0.13;;;;;;;;;;5034434;28;20111;-67
2021/12/19 11:05:27;;;;;;;0.52;0.10;;;;;;;;;;5034473;28;20064;-67
2021/12/19 11:08:06;;;;;;;0.65;0.40;;;;;;;;;;5034163;28;20026;-67
2021/12/19 11:10:32;;;;;;;1.48;0.00;;;;;;;;;;5034225;28;20036;-66
2021/12/19 11:13:07;;;;;;;1.02;0.10;;;;;;;;;;5034158;28;20025;-66
2021/12/19 11:15:32;;;;;;;0.32;0.00;;;;;;;;;;5034085;28;20028;-67
2021/12/19 11:17:57;;;;;;;0.40;0.10;;;;;;;;;;5034212;28;20026;-68
2021/12/19 11:20:23;;;;;;;0.40;0.10;;;;;;;;;;5033863;28;20045;-67
2021/12/19 11:22:48;;;;;;;0.85;0.10;;;;;;;;;;5033799;28;20104;-67
2021/12/19 11:25:13;;;;;;;0.20;0.00;;;;;;;;;;5033982;28;20026;-67
2021/12/19 11:27:38;;;;;;;0.50;0.10;;;;;;;;;;5033940;28;20282;-67
2021/12/19 11:30:04;;;;;;;0.20;0.20;;;;;;;;;;5033774;28;20021;-67
2021/12/19 11:32:29;;;;;;;0.38;0.10;;;;;;;;;;5033773;28;20029;-67
2021/12/19 11:35:05;;;;;;;0.32;0.20;;;;;;;;;;5033933;28;20404;-67
2021/12/19 11:37:42;;;;;;;1.05;0.10;;;;;;;;;;5034023;28;20195;-67
2021/12/19 11:40:08;;;;;;;0.10;0.08;;;;;;;;;;5032482;28;20416;-67
2021/12/19 11:42:34;;;;;;;0.20;0.10;;;;;;;;;;5033594;28;20107;-67
2021/12/19 11:47:35;;;;;;;0.10;0.00;;;;;;;;;;5033779;28;20457;-67
2021/12/19 11:50:18;;;;;;;0.30;0.13;;;;;;;;;;5033608;28;20335;-67
2021/12/19 11:52:43;;;;;;;0.43;0.05;;;;;;;;;;5033209;28;20028;-67
2021/12/19 11:55:14;;;;;;;0.30;0.10;;;;;;;;;;5032191;28;20029;-67
2021/12/19 11:58:02;;;;;;;0.75;0.05;;;;;;;;;;5033195;28;20251;-66
2021/12/19 12:00:28;;;;;;;0.10;0.10;;;;;;;;;;5032962;28;20479;-66
2021/12/19 12:03:12;;;;;;;0.30;0.20;;;;;;;;;;5033124;28;20044;-67
2021/12/19 12:05:37;;;;;;;0.47;0.20;;;;;;;;;;5033165;28;20014;-67
2021/12/19 12:08:06;;;;;;;0.52;0.00;;;;;;;;;;5031947;28;20372;-67
2021/12/19 12:10:54;;;;;;;0.52;0.10;;;;;;;;;;5033127;28;20017;-67
2021/12/19 12:13:23;;;;;;;0.75;0.38;;;;;;;;;;5031882;28;20029;-67
2021/12/19 12:15:54;;;;;;;0.80;0.00;;;;;;;;;;5033000;28;20021;-67
2021/12/19 12:18:29;;;;;;;0.20;0.20;;;;;;;;;;5033017;28;20473;-67
2021/12/19 12:20:55;;;;;;;0.20;0.10;;;;;;;;;;5032608;28;20042;-67
2021/12/19 12:23:25;;;;;;;0.10;0.00;;;;;;;;;;5033015;28;20026;-67
2021/12/19 12:25:50;;;;;;;0.10;0.10;;;;;;;;;;5032818;28;20021;-67
2021/12/19 12:28:17;;;;;;;0.87;0.10;;;;;;;;;;5032924;28;20033;-68
2021/12/19 12:30:45;;;;;;;0.32;0.10;;;;;;;;;;5032583;28;20254;-68
2021/12/19 12:33:14;;;;;;;0.88;0.10;;;;;;;;;;5033106;28;20048;-67
2021/12/19 12:35:40;;;;;;;0.77;0.10;;;;;;;;;;5032600;28;20457;-66
2021/12/19 12:38:06;;;;;;;0.35;0.00;;;;;;;;;;5032721;28;20021;-66
2021/12/19 12:41:03;;;;;;;0.10;0.03;;;;;;;;;;5032516;28;20415;-66
2021/12/19 12:43:22;;;;;;;0.65;0.10;;;;;;;;;;5032186;28;20092;-66
2021/12/19 12:45:55;;;;;;;0.08;0.05;;;;;;;;;;5032455;28;20346;-66
2021/12/19 12:48:35;;;;;;;0.38;0.20;;;;;;;;;;5032132;28;20025;-67
2021/12/19 12:51:03;;;;;;;0.10;0.10;;;;;;;;;;5032454;28;20387;-67
2021/12/19 12:53:36;;;;;;;0.10;0.08;;;;;;;;;;5032457;28;20028;-67
2021/12/19 12:56:06;;;;;;;0.20;0.08;;;;;;;;;;5032492;28;20017;-67
2021/12/19 12:58:39;;;;;;;0.40;0.20;;;;;;;;;;5030751;28;20060;-67
2021/12/19 13:01:14;;;;;;;0.65;0.15;;;;;;;;;;5032392;28;20031;-67
2021/12/19 13:03:52;;;;;;;0.00;0.00;;;;;;;;;;5032194;28;20100;-67
2021/12/19 13:06:36;;;;;;;0.63;0.20;;;;;;;;;;5032349;28;20100;-67
2021/12/19 13:09:10;;;;;;;0.05;0.05;;;;;;;;;;5032262;28;20036;-67
2021/12/19 13:11:36;;;;;;;0.40;0.20;;;;;;;;;;5032207;28;20447;-67
2021/12/19 13:14:19;;;;;;;0.60;0.22;;;;;;;;;;5032315;28;20051;-67
2021/12/19 13:16:49;;;;;;;0.40;0.20;;;;;;;;;;5032035;28;20549;-67
2021/12/19 13:19:32;;;;;;;0.40;0.10;;;;;;;;;;5032166;28;20035;-67
2021/12/19 13:21:58;;;;;;;0.00;0.00;;;;;;;;;;5032134;28;20051;-67
2021/12/19 13:24:24;;;;;;;0.93;0.10;;;;;;;;;;5032127;28;20014;-67
2021/12/19 13:27:01;;;;;;;0.08;0.00;;;;;;;;;;5031972;28;20032;-67
2021/12/19 13:29:26;;;;;;;0.25;0.20;;;;;;;;;;5032113;28;20460;-68
2021/12/19 13:31:51;;;;;;;0.17;0.00;;;;;;;;;;5032314;28;20029;-68
2021/12/19 13:34:17;;;;;;;1.02;0.20;;;;;;;;;;5030804;28;20107;-68
2021/12/19 13:36:42;;;;;;;0.47;0.20;;;;;;;;;;5031891;28;20025;-67
2021/12/19 13:39:17;;;;;;;0.28;0.10;;;;;;;;;;5031961;28;20079;-67
2021/12/19 13:41:42;;;;;;;1.08;0.28;;;;;;;;;;5031918;28;20024;-67
2021/12/19 13:44:08;;;;;;;0.10;0.00;;;;;;;;;;5032362;28;20010;-67
2021/12/19 13:46:34;;;;;;;0.75;0.20;;;;;;;;;;5031895;28;20061;-68
2021/12/19 13:48:59;;;;;;;0.68;0.20;;;;;;;;;;5031850;28;20518;-67
2021/12/19 13:51:25;;;;;;;0.47;0.10;;;;;;;;;;5031968;28;20200;-67
2021/12/19 13:53:53;;;;;;;0.08;0.00;;;;;;;;;;5031879;28;20100;-67
2021/12/19 13:56:19;;;;;;;0.40;0.20;;;;;;;;;;5030608;28;20022;-67
2021/12/19 13:58:46;;;;;;;0.28;0.10;;;;;;;;;;5031522;28;20432;-67
2021/12/19 14:01:16;;;;;;;0.57;0.10;;;;;;;;;;5034483;28;20483;-67
2021/12/19 14:03:43;;;;;;;0.32;0.05;;;;;;;;;;5034003;28;20372;-67
2021/12/19 14:06:08;;;;;;;0.90;0.10;;;;;;;;;;5035523;28;20014;-67
2021/12/19 14:08:35;;;;;;;0.40;0.10;;;;;;;;;;5035363;28;20022;-67
2021/12/19 14:11:01;;;;;;;0.17;0.10;;;;;;;;;;5035399;28;20495;-67
2021/12/19 14:13:32;;;;;;;0.45;0.10;;;;;;;;;;5035311;28;20029;-67
2021/12/19 14:15:57;;;;;;;0.30;0.00;;;;;;;;;;5035402;28;20018;-68
2021/12/19 14:18:49;;;;;;;0.47;0.38;;;;;;;;;;5035228;28;20083;-67
2021/12/19 14:21:29;;;;;;;1.75;0.17;;;;;;;;;;5031046;28;20052;-67
2021/12/19 14:24:07;;;;;;;0.55;0.10;;;;;;;;;;5033859;28;20028;-67
2021/12/19 14:26:32;;;;;;;0.35;0.20;;;;;;;;;;5035040;28;20068;-67
2021/12/19 14:28:58;;;;;;;0.13;0.00;;;;;;;;;;5035034;28;20029;-67
2021/12/19 14:31:23;;;;;;;0.70;0.25;;;;;;;;;;5035077;28;20254;-67
2021/12/19 14:33:50;;;;;;;1.60;0.67;;;;;;;;;;5035209;28;20079;-66
2021/12/19 14:36:25;;;;;;;0.65;0.10;;;;;;;;;;5034946;28;20721;-67
2021/12/19 14:38:58;;;;;;;0.55;0.10;;;;;;;;;;5034627;28;20534;-67
2021/12/19 14:41:27;;;;;;;0.28;0.03;;;;;;;;;;5034870;28;20068;-67
2021/12/19 14:43:53;;;;;;;0.10;0.05;;;;;;;;;;5034788;28;20020;-67
2021/12/19 14:46:25;;;;;;;0.13;0.03;;;;;;;;;;5034855;28;20014;-67
2021/12/19 14:48:50;;;;;;;0.50;0.10;;;;;;;;;;5034499;28;20029;-67
2021/12/19 14:51:23;;;;;;;0.35;0.10;;;;;;;;;;5034725;28;20128;-68
2021/12/19 14:53:56;;;;;;;0.65;0.20;;;;;;;;;;5034531;28;20048;-67
2021/12/19 14:56:24;;;;;;;0.15;0.00;;;;;;;;;;5034691;28;20033;-67
2021/12/19 14:58:50;;;;;;;0.15;0.03;;;;;;;;;;5032966;28;20029;-67
2021/12/19 15:01:15;;;;;;;0.22;0.10;;;;;;;;;;5034547;28;20020;-67
2021/12/19 15:03:47;;;;;;;0.55;0.10;;;;;;;;;;5034349;28;20021;-68
2021/12/19 15:06:14;;;;;;;0.47;0.05;;;;;;;;;;5033118;28;20021;-67
2021/12/19 15:08:40;;;;;;;0.95;0.15;;;;;;;;;;5034206;28;20049;-67
2021/12/19 15:11:05;;;;;;;0.32;0.05;;;;;;;;;;5033925;28;20053;-67
2021/12/19 15:13:31;;;;;;;0.32;0.20;;;;;;;;;;5034230;28;20060;-67
2021/12/19 15:15:56;;;;;;;0.10;0.00;;;;;;;;;;5034280;28;20460;-67
2021/12/19 15:18:22;;;;;;;0.68;0.10;;;;;;;;;;5034102;28;20400;-67
2021/12/19 15:20:47;;;;;;;0.85;0.10;;;;;;;;;;5033653;28;20038;-67
2021/12/19 15:23:15;;;;;;;0.50;0.20;;;;;;;;;;5034095;28;20024;-67
2021/12/19 15:25:41;;;;;;;0.98;0.20;;;;;;;;;;5032581;28;20071;-67
2021/12/19 15:28:07;;;;;;;0.90;0.10;;;;;;;;;;5034016;28;20400;-67
2021/12/19 15:30:32;;;;;;;0.20;0.10;;;;;;;;;;5033922;28;20032;-67
2021/12/19 15:32:57;;;;;;;0.38;0.10;;;;;;;;;;5034039;28;20095;-68
2021/12/19 15:35:22;;;;;;;0.50;0.20;;;;;;;;;;5033891;28;20022;-67
2021/12/19 15:37:48;;;;;;;1.05;0.20;;;;;;;;;;5033712;28;20247;-67
2021/12/19 15:40:13;;;;;;;0.35;0.10;;;;;;;;;;5033677;28;20029;-67
2021/12/19 15:42:38;;;;;;;0.47;0.10;;;;;;;;;;5033543;28;20068;-67
2021/12/19 15:45:05;;;;;;;0.00;0.00;;;;;;;;;;5033645;28;20526;-68
2021/12/19 15:47:30;;;;;;;0.03;0.00;;;;;;;;;;5033192;28;20219;-68
2021/12/19 15:49:55;;;;;;;0.10;0.10;;;;;;;;;;5033889;28;20197;-68
2021/12/19 15:52:20;;;;;;;0.43;0.20;;;;;;;;;;5033577;28;20074;-68
2021/12/19 15:54:45;;;;;;;0.40;0.00;;;;;;;;;;5031937;28;20279;-68